createdAt,value
2023-05-20T00:01:30.421Z,18.53
2023-05-20T00:03:57.972Z,18.48
2023-05-20T00:06:25.448Z,18.48
2023-05-20T00:08:52.577Z,18.45
2023-05-20T00:11:20.115Z,18.44
2023-05-20T00:13:47.866Z,18.47
2023-05-20T00:16:15.086Z,18.40
2023-05-20T00:18:42.205Z,18.39
2023-05-20T00:21:09.485Z,18.34
2023-05-20T00:23:36.544Z,18.39
2023-05-20T00:26:04.813Z,18.38
2023-05-20T00:28:31.900Z,18.31
2023-05-20T00:30:59.129Z,18.26
2023-05-20T00:33:26.189Z,18.25
2023-05-20T00:35:53.398Z,18.26
2023-05-20T00:38:20.536Z,18.32
2023-05-20T00:40:48.405Z,18.32
2023-05-20T00:43:15.809Z,18.25
2023-05-20T00:45:43.134Z,18.20
2023-05-20T00:48:11.180Z,18.20
2023-05-20T00:50:38.619Z,18.22
2023-05-20T00:53:06.716Z,18.24
2023-05-20T00:55:34.203Z,18.29
2023-05-20T00:58:01.594Z,18.29
2023-05-20T01:00:28.891Z,18.32
2023-05-20T01:02:57.260Z,18.39
2023-05-20T01:05:25.304Z,18.39
2023-05-20T01:07:52.559Z,18.44
2023-05-20T01:10:20.129Z,18.43
2023-05-20T01:12:52.985Z,18.49
2023-05-20T01:15:24.475Z,18.44
2023-05-20T01:17:58.617Z,18.42
2023-05-20T01:20:26.441Z,18.40
2023-05-20T01:22:57.125Z,18.25
2023-05-20T01:25:27.998Z,17.88
2023-05-20T01:27:57.962Z,17.61
2023-05-20T01:30:33.937Z,17.57
2023-05-20T01:33:08.420Z,17.72
2023-05-20T01:35:36.951Z,17.85
2023-05-20T01:38:06.488Z,17.90
2023-05-20T01:40:34.544Z,17.93
2023-05-20T01:43:03.785Z,17.91
2023-05-20T01:45:32.084Z,17.90
2023-05-20T01:48:00.195Z,17.86
2023-05-20T01:50:27.578Z,17.86
2023-05-20T01:52:54.672Z,17.83
2023-05-20T01:55:21.876Z,17.80
2023-05-20T01:57:49.121Z,17.78
2023-05-20T02:00:16.835Z,17.71
2023-05-20T02:02:45.237Z,17.75
2023-05-20T02:05:13.764Z,17.87
2023-05-20T02:07:43.399Z,17.92
2023-05-20T02:10:11.077Z,17.93
2023-05-20T02:12:38.445Z,17.96
2023-05-20T02:15:06.455Z,17.96
2023-05-20T02:17:33.556Z,17.98
2023-05-20T02:20:00.814Z,17.93
2023-05-20T02:22:30.193Z,17.98
2023-05-20T02:24:57.395Z,18.10
2023-05-20T02:27:24.451Z,18.10
2023-05-20T02:29:51.568Z,18.08
2023-05-20T02:32:20.837Z,18.11
2023-05-20T02:34:48.141Z,18.07
2023-05-20T02:37:15.414Z,18.03
2023-05-20T02:39:42.616Z,18.03
2023-05-20T02:42:09.806Z,18.10
2023-05-20T02:44:37.225Z,18.17
2023-05-20T02:47:04.475Z,18.16
2023-05-20T02:49:31.710Z,18.15
2023-05-20T02:51:59.216Z,18.14
2023-05-20T02:54:26.488Z,18.18
2023-05-20T02:56:53.578Z,18.19
2023-05-20T02:59:20.862Z,18.23
2023-05-20T03:01:47.974Z,18.22
2023-05-20T03:04:15.385Z,18.22
2023-05-20T03:06:44.597Z,18.27
2023-05-20T03:09:12.036Z,18.32
2023-05-20T03:11:40.132Z,18.34
2023-05-20T03:14:07.304Z,18.36
2023-05-20T03:16:35.580Z,18.40
2023-05-20T03:19:02.972Z,18.36
2023-05-20T03:21:30.509Z,18.38
2023-05-20T03:23:58.054Z,18.40
2023-05-20T03:26:25.846Z,18.41
2023-05-20T03:28:52.998Z,18.43
2023-05-20T03:31:20.419Z,18.44
2023-05-20T03:33:47.712Z,18.46
2023-05-20T03:36:14.968Z,18.45
2023-05-20T03:38:42.136Z,18.48
2023-05-20T03:41:09.386Z,18.47
2023-05-20T03:43:36.666Z,18.45
2023-05-20T03:46:03.913Z,18.48
2023-05-20T03:48:31.186Z,18.42
2023-05-20T03:50:58.288Z,18.44
2023-05-20T03:53:25.724Z,18.45
2023-05-20T03:55:53.209Z,18.46
2023-05-20T03:58:23.540Z,18.39
2023-05-20T04:00:50.912Z,18.36
2023-05-20T04:03:19.907Z,18.32
2023-05-20T04:05:48.751Z,18.28
2023-05-20T04:08:22.188Z,18.24
2023-05-20T04:10:49.595Z,18.22
2023-05-20T04:13:16.977Z,18.19
2023-05-20T04:15:44.509Z,18.16
2023-05-20T04:18:13.329Z,18.19
2023-05-20T04:20:44.138Z,18.19
2023-05-20T04:23:13.696Z,18.09
2023-05-20T04:25:44.924Z,17.95
2023-05-20T04:28:14.291Z,17.83
2023-05-20T04:30:45.248Z,17.71
2023-05-20T04:33:15.044Z,17.65
2023-05-20T04:35:43.067Z,17.61
2023-05-20T04:38:10.358Z,17.59
2023-05-20T04:40:37.430Z,17.58
2023-05-20T04:43:05.096Z,17.55
2023-05-20T04:45:34.232Z,17.56
2023-05-20T04:48:01.778Z,17.58
2023-05-20T04:50:39.216Z,17.56
2023-05-20T04:53:08.035Z,17.54
2023-05-20T04:55:37.583Z,17.49
2023-05-20T04:58:04.715Z,17.46
2023-05-20T05:00:31.884Z,17.44
2023-05-20T05:02:59.094Z,17.47
2023-05-20T05:05:26.319Z,17.49
2023-05-20T05:07:53.823Z,17.43
2023-05-20T05:10:22.069Z,17.29
2023-05-20T05:12:49.080Z,17.21
2023-05-20T05:15:16.831Z,17.12
2023-05-20T05:17:44.704Z,17.03
2023-05-20T05:20:12.568Z,17.00
2023-05-20T05:22:41.982Z,16.97
2023-05-20T05:25:10.233Z,16.99
2023-05-20T05:27:38.060Z,17.01
2023-05-20T05:30:06.487Z,17.10
2023-05-20T05:32:34.181Z,17.20
2023-05-20T05:35:01.330Z,17.29
2023-05-20T05:37:29.072Z,17.37
2023-05-20T05:39:56.770Z,17.42
2023-05-20T05:42:23.972Z,17.44
2023-05-20T05:44:52.134Z,17.46
2023-05-20T05:47:19.768Z,17.42
2023-05-20T05:49:47.504Z,17.40
2023-05-20T05:52:14.551Z,17.34
2023-05-20T05:54:42.893Z,17.23
2023-05-20T05:57:12.154Z,17.06
2023-05-20T05:59:40.005Z,16.84
2023-05-20T06:02:07.121Z,16.71
2023-05-20T06:04:34.252Z,16.61
2023-05-20T06:07:02.377Z,16.54
2023-05-20T06:09:30.136Z,16.53
2023-05-20T06:11:58.200Z,16.67
2023-05-20T06:14:25.276Z,16.77
2023-05-20T06:16:52.631Z,16.88
2023-05-20T06:19:20.073Z,17.02
2023-05-20T06:21:47.289Z,17.17
2023-05-20T06:24:14.700Z,17.30
2023-05-20T06:26:42.061Z,17.42
2023-05-20T06:29:09.256Z,17.55
2023-05-20T06:31:36.422Z,17.67
2023-05-20T06:34:03.791Z,17.77
2023-05-20T06:36:33.617Z,17.86
2023-05-20T06:39:01.210Z,17.99
2023-05-20T06:41:28.356Z,18.01
2023-05-20T06:43:55.707Z,18.04
2023-05-20T06:47:01.393Z,18.07
2023-05-20T06:49:29.755Z,18.03
2023-05-20T06:51:56.802Z,18.05
2023-05-20T06:54:24.732Z,18.02
2023-05-20T06:56:51.986Z,18.02
2023-05-20T06:59:21.428Z,18.05
2023-05-20T07:01:48.686Z,18.15
2023-05-20T07:04:15.969Z,18.14
2023-05-20T07:06:43.575Z,18.01
2023-05-20T07:09:10.628Z,17.80
2023-05-20T07:11:37.902Z,17.54
2023-05-20T07:14:05.858Z,17.34
2023-05-20T07:16:35.384Z,17.21
2023-05-20T07:19:03.776Z,17.10
2023-05-20T07:21:31.323Z,17.17
2023-05-20T07:24:18.766Z,17.22
2023-05-20T07:26:46.025Z,17.31
2023-05-20T07:29:13.166Z,17.38
2023-05-20T07:31:40.348Z,17.49
2023-05-20T07:34:07.571Z,17.55
2023-05-20T07:36:35.124Z,17.59
2023-05-20T07:39:09.010Z,17.63
2023-05-20T07:41:40.054Z,17.68
2023-05-20T07:44:08.878Z,17.69
2023-05-20T07:46:39.805Z,17.75
2023-05-20T07:49:08.357Z,17.82
2023-05-20T07:51:36.479Z,17.88
2023-05-20T07:54:04.087Z,17.90
2023-05-20T07:56:33.450Z,17.86
2023-05-20T07:59:03.428Z,17.76
2023-05-20T08:01:35.630Z,17.68
2023-05-20T08:04:04.152Z,17.70
2023-05-20T08:06:33.309Z,17.76
2023-05-20T08:09:02.882Z,17.87
2023-05-20T08:11:33.670Z,17.99
2023-05-20T08:14:02.315Z,18.03
2023-05-20T08:16:34.315Z,18.11
2023-05-20T08:19:02.348Z,18.08
2023-05-20T08:21:29.833Z,18.04
2023-05-20T08:23:57.100Z,18.05
2023-05-20T08:26:24.401Z,18.05
2023-05-20T08:28:51.766Z,18.07
2023-05-20T08:31:19.875Z,17.97
2023-05-20T08:33:47.246Z,17.98
2023-05-20T08:36:14.648Z,17.94
2023-05-20T08:38:42.287Z,17.95
2023-05-20T08:41:09.772Z,17.98
2023-05-20T08:43:42.852Z,17.99
2023-05-20T08:46:11.892Z,17.95
2023-05-20T08:48:40.251Z,17.90
2023-05-20T08:51:11.460Z,17.85
2023-05-20T08:53:38.673Z,17.88
2023-05-20T08:56:06.571Z,17.88
2023-05-20T08:58:33.829Z,17.84
2023-05-20T09:01:01.155Z,17.69
2023-05-20T09:03:29.166Z,17.53
2023-05-20T09:06:05.320Z,17.30
2023-05-20T09:08:33.793Z,17.16
2023-05-20T09:11:01.227Z,17.01
2023-05-20T09:13:30.986Z,16.84
2023-05-20T09:16:00.227Z,16.64
2023-05-20T09:18:27.569Z,16.50
2023-05-20T09:20:54.903Z,16.47
2023-05-20T09:23:22.458Z,16.47
2023-05-20T09:25:52.235Z,16.47
2023-05-20T09:28:27.053Z,16.51
2023-05-20T09:31:01.720Z,16.59
2023-05-20T09:33:32.212Z,16.69
2023-05-20T09:36:04.929Z,16.77
2023-05-20T09:38:38.325Z,16.81
2023-05-20T09:41:12.970Z,16.81
2023-05-20T09:43:41.031Z,16.82
2023-05-20T09:46:08.973Z,16.75
2023-05-20T09:48:37.686Z,16.71
2023-05-20T09:51:06.014Z,16.69
2023-05-20T09:53:33.383Z,16.72
2023-05-20T09:56:00.450Z,16.79
2023-05-20T09:58:29.246Z,16.79
2023-05-20T10:00:56.630Z,16.86
2023-05-20T10:03:25.218Z,16.80
2023-05-20T10:06:11.143Z,16.79
2023-05-20T10:09:09.110Z,16.68
2023-05-20T10:12:02.229Z,16.49
2023-05-20T10:14:40.236Z,16.42
2023-05-20T10:17:37.279Z,16.36
2023-05-20T10:20:09.473Z,16.30
2023-05-20T10:23:09.097Z,16.24
2023-05-20T10:25:36.719Z,16.20
2023-05-20T10:28:09.653Z,16.17
2023-05-20T10:30:37.885Z,16.05
2023-05-20T10:33:07.342Z,15.98
2023-05-20T10:35:34.972Z,15.90
2023-05-20T10:38:13.640Z,15.85
2023-05-20T10:40:41.210Z,15.85
2023-05-20T10:43:12.434Z,15.82
2023-05-20T10:45:54.075Z,15.73
2023-05-20T10:48:28.695Z,15.73
2023-05-20T10:51:04.141Z,15.72
2023-05-20T10:53:45.797Z,15.78
2023-05-20T10:56:23.719Z,15.75
2023-05-20T10:58:52.268Z,15.73
2023-05-20T11:01:23.293Z,15.63
2023-05-20T11:03:51.568Z,15.66
2023-05-20T11:06:19.061Z,15.67
2023-05-20T11:08:46.594Z,15.72
2023-05-20T11:11:15.595Z,15.70
2023-05-20T11:13:43.413Z,15.68
2023-05-20T11:16:12.819Z,15.71
2023-05-20T11:18:40.476Z,15.68
2023-05-20T11:21:08.322Z,15.68
2023-05-20T11:23:40.586Z,15.68
2023-05-20T11:26:09.107Z,15.64
2023-05-20T11:28:36.988Z,15.67
2023-05-20T11:31:05.130Z,15.62
2023-05-20T11:33:32.889Z,15.61
2023-05-20T11:36:10.932Z,15.60
2023-05-20T11:38:50.772Z,15.60
2023-05-20T11:41:25.511Z,15.60
2023-05-20T11:43:59.837Z,15.59
2023-05-20T11:46:32.387Z,15.60
2023-05-20T11:49:02.978Z,15.62
2023-05-20T11:51:31.424Z,15.64
2023-05-20T11:54:06.978Z,15.67
2023-05-20T11:56:38.499Z,15.65
2023-05-20T11:59:06.925Z,15.64
2023-05-20T12:01:46.144Z,15.63
2023-05-20T12:04:14.962Z,15.60
2023-05-20T12:06:44.218Z,15.56
2023-05-20T12:09:11.966Z,15.55
2023-05-20T12:11:41.725Z,15.56
2023-05-20T12:14:10.125Z,15.61
2023-05-20T12:16:38.219Z,15.66
2023-05-20T12:19:05.908Z,15.68
2023-05-20T12:21:33.162Z,15.71
2023-05-20T12:24:00.595Z,15.72
2023-05-20T12:26:29.506Z,15.75
2023-05-20T12:28:57.356Z,15.81
2023-05-20T12:31:26.169Z,15.90
2023-05-20T12:33:53.268Z,15.93
2023-05-20T12:36:20.717Z,15.98
2023-05-20T12:38:47.878Z,16.01
2023-05-20T12:41:15.139Z,16.02
2023-05-20T12:43:42.230Z,16.05
2023-05-20T12:46:09.820Z,16.16
2023-05-20T12:48:37.462Z,16.21
2023-05-20T12:51:04.900Z,16.24
2023-05-20T12:53:32.337Z,16.26
2023-05-20T12:55:59.439Z,16.30
2023-05-20T12:58:27.135Z,16.35
2023-05-20T13:00:54.382Z,16.38
2023-05-20T13:03:21.964Z,16.43
2023-05-20T13:05:49.495Z,16.50
2023-05-20T13:08:16.880Z,16.58
2023-05-20T13:10:44.655Z,16.65
2023-05-20T13:13:12.638Z,16.69
2023-05-20T13:15:40.241Z,16.76
2023-05-20T13:18:07.960Z,16.80
2023-05-20T13:20:36.226Z,16.78
2023-05-20T13:23:04.196Z,16.74
2023-05-20T13:25:32.257Z,16.77
2023-05-20T13:28:00.054Z,16.81
2023-05-20T13:30:28.796Z,16.81
2023-05-20T13:32:56.532Z,16.76
2023-05-20T13:35:24.824Z,16.76
2023-05-20T13:37:52.552Z,16.75
2023-05-20T13:40:19.788Z,16.78
2023-05-20T13:42:47.659Z,16.81
2023-05-20T13:45:14.939Z,16.81
2023-05-20T13:47:42.523Z,16.85
2023-05-20T13:50:10.769Z,16.82
2023-05-20T13:52:38.419Z,16.82
2023-05-20T13:55:06.559Z,16.85
2023-05-20T13:57:33.927Z,16.87
2023-05-20T14:00:01.256Z,16.86
2023-05-20T14:02:28.524Z,16.87
2023-05-20T14:04:55.810Z,16.91
2023-05-20T14:07:23.333Z,16.93
2023-05-20T14:09:50.579Z,16.90
2023-05-20T14:12:18.067Z,16.94
2023-05-20T14:14:45.553Z,16.92
2023-05-20T14:17:12.997Z,16.94
2023-05-20T14:19:40.509Z,16.94
2023-05-20T14:22:07.852Z,16.97
2023-05-20T14:24:35.172Z,16.97
2023-05-20T14:27:02.690Z,16.97
2023-05-20T14:29:30.275Z,16.90
2023-05-20T14:31:57.743Z,16.87
2023-05-20T14:34:25.457Z,16.96
2023-05-20T14:36:53.175Z,16.99
2023-05-20T14:39:20.650Z,17.01
2023-05-20T14:41:48.215Z,17.02
2023-05-20T14:44:15.476Z,17.01
2023-05-20T14:46:43.252Z,17.08
2023-05-20T14:49:11.175Z,17.10
2023-05-20T14:51:38.885Z,17.09
2023-05-20T14:54:08.632Z,17.11
2023-05-20T14:56:36.510Z,17.09
2023-05-20T14:59:03.945Z,17.11
2023-05-20T15:01:31.852Z,17.09
2023-05-20T15:03:59.639Z,17.08
2023-05-20T15:06:27.073Z,17.10
2023-05-20T15:08:54.773Z,17.12
2023-05-20T15:11:22.587Z,17.13
2023-05-20T15:13:51.464Z,17.11
2023-05-20T15:16:24.564Z,17.05
2023-05-20T15:18:52.447Z,17.10
2023-05-20T15:21:19.846Z,17.10
2023-05-20T15:23:47.311Z,17.11
2023-05-20T15:26:14.493Z,17.03
2023-05-20T15:28:41.972Z,17.07
2023-05-20T15:31:09.500Z,17.09
2023-05-20T15:33:37.046Z,17.08
2023-05-20T15:36:04.749Z,17.08
2023-05-20T15:38:32.057Z,17.09
2023-05-20T15:40:59.941Z,17.05
2023-05-20T15:43:27.392Z,17.09
2023-05-20T15:45:54.954Z,17.07
2023-05-20T15:48:23.004Z,17.05
2023-05-20T15:50:50.534Z,17.08
2023-05-20T15:53:17.734Z,17.08
2023-05-20T15:55:45.218Z,17.06
2023-05-20T15:58:12.512Z,17.06
2023-05-20T16:00:39.901Z,17.09
2023-05-20T16:03:07.191Z,17.09
2023-05-20T16:05:34.846Z,17.05
2023-05-20T16:08:02.862Z,17.04
2023-05-20T16:10:33.199Z,17.04
2023-05-20T16:13:03.876Z,17.02
2023-05-20T16:15:36.650Z,17.03
2023-05-20T16:18:04.379Z,17.02
2023-05-20T16:20:31.819Z,17.02
2023-05-20T16:22:59.035Z,16.99
2023-05-20T16:25:26.403Z,16.98
2023-05-20T16:27:53.734Z,16.88
2023-05-20T16:30:21.078Z,16.97
2023-05-20T16:32:48.549Z,16.88
2023-05-20T16:35:16.834Z,16.91
2023-05-20T16:37:44.661Z,16.87
2023-05-20T16:40:12.422Z,16.87
2023-05-20T16:42:40.164Z,16.87
2023-05-20T16:45:08.058Z,16.86
2023-05-20T16:47:37.142Z,16.86
2023-05-20T16:50:05.163Z,16.86
2023-05-20T16:52:34.259Z,16.87
2023-05-20T16:55:04.102Z,16.87
2023-05-20T16:57:31.592Z,16.87
2023-05-20T16:59:58.845Z,16.85
2023-05-20T17:02:26.281Z,16.91
2023-05-20T17:04:55.791Z,16.95
2023-05-20T17:07:23.534Z,16.94
2023-05-20T17:09:51.313Z,16.96
2023-05-20T17:12:19.488Z,16.97
2023-05-20T17:14:47.477Z,16.97
2023-05-20T17:20:25.979Z,17.02
2023-05-20T17:22:53.187Z,17.03
2023-05-20T17:25:20.736Z,17.06
2023-05-20T17:27:47.890Z,17.07
2023-05-20T17:30:15.150Z,17.12
2023-05-20T17:32:42.716Z,17.16
2023-05-20T17:35:10.391Z,17.17
2023-05-20T17:37:37.859Z,17.19
2023-05-20T17:40:08.166Z,17.20
2023-05-20T17:42:35.856Z,17.19
2023-05-20T17:45:02.984Z,17.20
2023-05-20T17:47:30.276Z,17.14
2023-05-20T17:50:00.084Z,17.19
2023-05-20T17:52:27.575Z,17.16
2023-05-20T17:54:55.057Z,17.16
2023-05-20T17:57:22.320Z,17.13
2023-05-20T17:59:51.122Z,17.15
2023-05-20T18:02:18.495Z,17.13
2023-05-20T18:04:45.836Z,17.14
2023-05-20T18:07:13.526Z,17.13
2023-05-20T18:09:41.113Z,17.16
2023-05-20T18:12:10.912Z,17.18
2023-05-20T18:14:38.339Z,17.15
2023-05-20T18:17:05.648Z,17.18
2023-05-20T18:19:34.105Z,17.16
2023-05-20T18:22:02.930Z,17.08
2023-05-20T18:24:30.184Z,17.05
2023-05-20T18:26:57.607Z,17.07
2023-05-20T18:29:27.140Z,17.08
2023-05-20T18:31:56.748Z,17.10
2023-05-20T18:34:24.639Z,17.07
2023-05-20T18:36:51.810Z,17.07
2023-05-20T18:39:21.820Z,17.03
2023-05-20T18:41:49.089Z,16.96
2023-05-20T18:44:17.610Z,16.93
2023-05-20T18:46:45.643Z,16.92
2023-05-20T18:49:12.966Z,16.86
2023-05-20T18:51:41.732Z,16.80
2023-05-20T18:54:09.311Z,16.75
2023-05-20T18:56:36.553Z,16.72
2023-05-20T18:59:03.802Z,16.69
2023-05-20T19:01:31.521Z,16.63
2023-05-20T19:03:58.572Z,16.59
2023-05-20T19:06:25.951Z,16.51
2023-05-20T19:08:53.126Z,16.44
2023-05-20T19:11:21.762Z,16.38
2023-05-20T19:13:48.909Z,16.32
2023-05-20T19:16:16.142Z,16.32
2023-05-20T19:18:43.638Z,16.30
2023-05-20T19:21:11.236Z,16.21
2023-05-20T19:23:38.561Z,16.12
2023-05-20T19:26:05.696Z,16.04
2023-05-20T19:28:32.895Z,16.02
2023-05-20T19:31:00.851Z,16.01
2023-05-20T19:33:28.427Z,16.00
2023-05-20T19:35:58.269Z,16.02
2023-05-20T19:38:25.830Z,16.00
2023-05-20T19:40:53.665Z,16.03
2023-05-20T19:43:21.886Z,16.05
2023-05-20T19:45:51.110Z,16.06
2023-05-20T19:48:20.034Z,16.06
2023-05-20T19:50:49.975Z,16.08
2023-05-20T19:53:18.146Z,16.15
2023-05-20T19:55:46.221Z,16.17
2023-05-20T19:58:13.736Z,16.22
2023-05-20T20:00:43.008Z,16.25
2023-05-20T20:03:11.253Z,16.26
2023-05-20T20:05:39.824Z,16.27
2023-05-20T20:08:07.560Z,16.28
2023-05-20T20:10:38.099Z,16.27
2023-05-20T20:13:06.292Z,16.26
2023-05-20T20:15:34.299Z,16.29
2023-05-20T20:18:03.721Z,16.30
2023-05-20T20:20:40.265Z,16.32
2023-05-20T20:23:08.281Z,16.33
2023-05-20T20:25:39.184Z,16.35
2023-05-20T20:28:07.775Z,16.35
2023-05-20T20:30:36.414Z,16.38
2023-05-20T20:33:06.708Z,16.37
2023-05-20T20:35:34.663Z,16.33
2023-05-20T20:38:08.482Z,16.29
2023-05-20T20:40:42.509Z,16.26
2023-05-20T20:43:11.249Z,16.18
2023-05-20T20:45:38.417Z,16.15
2023-05-20T20:48:08.234Z,16.09
2023-05-20T20:50:36.490Z,16.01
2023-05-20T20:53:03.602Z,15.99
2023-05-20T20:55:30.813Z,15.93
2023-05-20T20:57:58.463Z,15.84
2023-05-20T21:00:27.127Z,15.72
2023-05-20T21:02:54.329Z,15.67
2023-05-20T21:05:21.672Z,15.69
2023-05-20T21:07:52.743Z,15.66
2023-05-20T21:10:20.910Z,15.67
2023-05-20T21:12:47.986Z,15.69
2023-05-20T21:15:15.320Z,15.70
2023-05-20T21:17:42.448Z,15.79
2023-05-20T21:20:10.244Z,15.84
2023-05-20T21:22:37.329Z,15.85
2023-05-20T21:25:04.936Z,15.87
2023-05-20T21:27:32.055Z,15.89
2023-05-20T21:29:59.636Z,15.86
2023-05-20T21:32:26.812Z,15.82
2023-05-20T21:34:55.317Z,15.78
2023-05-20T21:37:24.044Z,15.76
2023-05-20T21:39:51.159Z,15.69
2023-05-20T21:42:18.304Z,15.67
2023-05-20T21:44:45.526Z,15.66
2023-05-20T21:47:12.669Z,15.62
2023-05-20T21:49:39.874Z,15.61
2023-05-20T21:52:07.270Z,15.55
2023-05-20T21:54:34.530Z,15.54
2023-05-20T21:57:02.949Z,15.52
2023-05-20T21:59:30.351Z,15.46
2023-05-20T22:01:58.419Z,15.41
2023-05-20T22:04:28.693Z,15.36
2023-05-20T22:06:56.749Z,15.33
2023-05-20T22:09:23.872Z,15.33
2023-05-20T22:11:51.358Z,15.32
2023-05-20T22:14:18.587Z,15.35
2023-05-20T22:16:49.083Z,15.35
2023-05-20T22:19:17.612Z,15.37
2023-05-20T22:21:50.545Z,15.37
2023-05-20T22:24:18.427Z,15.39
2023-05-20T22:26:45.917Z,15.39
2023-05-20T22:29:13.114Z,15.33
2023-05-20T22:31:40.248Z,15.30
2023-05-20T22:34:07.392Z,15.31
2023-05-20T22:36:36.564Z,15.36
2023-05-20T22:39:04.922Z,15.41
2023-05-20T22:41:32.221Z,15.41
2023-05-20T22:43:59.427Z,15.44
2023-05-20T22:46:26.614Z,15.46
2023-05-20T22:48:54.613Z,15.45
2023-05-20T22:51:22.347Z,15.51
2023-05-20T22:53:49.439Z,15.54
2023-05-20T22:56:17.408Z,15.55
2023-05-20T22:58:46.109Z,15.59
2023-05-20T23:01:24.704Z,15.62
2023-05-20T23:03:53.861Z,15.62
2023-05-20T23:06:22.753Z,15.63
2023-05-20T23:08:50.087Z,15.65
2023-05-20T23:11:17.163Z,15.66
2023-05-20T23:13:44.454Z,15.67
2023-05-20T23:16:11.493Z,15.67
2023-05-20T23:18:38.793Z,15.66
2023-05-20T23:21:06.106Z,15.67
2023-05-20T23:23:33.328Z,15.64
2023-05-20T23:26:01.855Z,15.67
2023-05-20T23:28:28.913Z,15.68
2023-05-20T23:30:56.717Z,15.66
2023-05-20T23:33:25.409Z,15.67
2023-05-20T23:35:53.409Z,15.67
2023-05-20T23:38:21.335Z,15.68
2023-05-20T23:40:49.445Z,15.70
2023-05-20T23:43:16.876Z,15.68
2023-05-20T23:45:43.958Z,15.74
2023-05-20T23:48:13.572Z,15.74
2023-05-20T23:50:41.034Z,15.74
2023-05-20T23:53:08.132Z,15.71
2023-05-20T23:55:35.681Z,15.73
2023-05-20T23:58:04.199Z,15.68
